Time;durP1;ratioP1;P1;durP2;ratioP2;P2;SDS_P1;SDS_P2;PMS_P1;PMS_P2;Temp;Humidity;BMP_temperature;BMP_pressure;BME280_temperature;BME280_humidity;BME280_pressure;Samples;Min_cycle;Max_cycle;Signal;HPM_P1;HPM_P2
2023/03/16 00:01:25;;;;;;;4.63;2.45;;;;;;;8.76;53.55;101745.44;5122358;28;20126;-59
2023/03/16 00:03:53;;;;;;;7.10;2.20;;;;;;;8.76;53.50;101745.44;5116603;28;20053;-59
2023/03/16 00:06:21;;;;;;;4.32;2.40;;;;;;;8.75;54.25;101738.41;5122602;28;20071;-59
2023/03/16 00:08:57;;;;;;;7.43;2.53;;;;;;;8.75;53.73;101735.72;5121040;27;20086;-59
2023/03/16 00:11:26;;;;;;;3.88;2.28;;;;;;;8.72;53.83;101731.56;5122351;28;20071;-59
2023/03/16 00:13:54;;;;;;;4.00;2.35;;;;;;;8.73;54.65;101727.88;5118615;28;20440;-60
2023/03/16 00:16:22;;;;;;;5.05;2.55;;;;;;;8.72;53.52;101730.75;5120932;28;20078;-60
2023/03/16 00:18:50;;;;;;;3.92;2.40;;;;;;;8.71;54.33;101729.91;5117337;28;20043;-59
2023/03/16 00:21:17;;;;;;;4.22;2.40;;;;;;;8.71;53.99;101735.28;5116203;28;20051;-59
2023/03/16 00:23:45;;;;;;;4.43;2.63;;;;;;;8.69;54.15;101726.59;5115101;28;20130;-60
2023/03/16 00:26:13;;;;;;;5.63;2.80;;;;;;;8.70;54.06;101725.56;5124258;27;20082;-57
2023/03/16 00:28:43;;;;;;;4.38;2.60;;;;;;;8.68;54.50;101716.91;5121176;28;20047;-59
2023/03/16 00:31:13;;;;;;;4.63;2.88;;;;;;;8.67;53.95;101712.56;5122969;28;20112;-58
2023/03/16 00:33:42;;;;;;;5.57;2.70;;;;;;;8.66;54.00;101710.91;5115059;28;20054;-58
2023/03/16 00:36:10;;;;;;;8.25;2.72;;;;;;;8.68;54.51;101710.69;5123252;28;20111;-58
2023/03/16 00:38:44;;;;;;;4.65;2.35;;;;;;;8.67;54.03;101712.56;5121094;28;20325;-58
2023/03/16 00:41:14;;;;;;;4.22;2.38;;;;;;;8.67;54.27;101714.41;5124593;28;20057;-59
2023/03/16 00:43:44;;;;;;;5.20;2.63;;;;;;;8.63;53.97;101707.78;5112185;28;20111;-59
2023/03/16 00:46:13;;;;;;;6.03;3.20;;;;;;;8.65;54.23;101703.06;5120463;28;20054;-59
2023/03/16 00:48:43;;;;;;;6.47;2.67;;;;;;;8.64;54.13;101704.09;5107482;27;20371;-58
2023/03/16 00:51:13;;;;;;;3.33;2.50;;;;;;;8.63;54.04;101705.09;5118044;28;20047;-59
2023/03/16 00:53:43;;;;;;;4.22;2.80;;;;;;;8.62;54.40;101703.44;5121142;27;20040;-59
2023/03/16 00:56:12;;;;;;;6.80;2.67;;;;;;;8.61;54.23;101697.25;5124225;28;20074;-57
2023/03/16 00:58:41;;;;;;;5.13;2.90;;;;;;;8.59;54.12;101693.94;5122598;28;20052;-59
2023/03/16 01:01:15;;;;;;;5.25;2.60;;;;;;;8.59;54.13;101685.91;5117473;28;20077;-59
2023/03/16 01:03:43;;;;;;;5.57;2.60;;;;;;;8.61;54.52;101691.06;5119675;28;20040;-59
2023/03/16 01:06:13;;;;;;;5.82;2.70;;;;;;;8.60;54.64;101681.38;5123512;28;20126;-60
2023/03/16 01:08:41;;;;;;;5.13;2.38;;;;;;;8.59;54.18;101674.34;5114335;28;20040;-60
2023/03/16 01:11:11;;;;;;;7.05;2.80;;;;;;;8.58;54.09;101670.84;5118823;28;20039;-57
2023/03/16 01:13:39;;;;;;;5.03;2.70;;;;;;;8.59;54.61;101666.31;5117136;28;20060;-59
2023/03/16 01:16:08;;;;;;;3.08;2.30;;;;;;;8.58;54.50;101667.31;5114282;28;20044;-59
2023/03/16 01:18:37;;;;;;;4.22;2.53;;;;;;;8.56;54.44;101659.47;5116452;28;20075;-59
2023/03/16 01:21:07;;;;;;;6.10;2.67;;;;;;;8.56;54.78;101662.16;5116998;28;20079;-59
2023/03/16 01:23:36;;;;;;;5.15;2.70;;;;;;;8.56;53.96;101659.47;5119493;28;20139;-58
2023/03/16 01:26:04;;;;;;;4.68;2.65;;;;;;;8.55;54.30;101649.78;5119484;28;20063;-59
2023/03/16 01:28:33;;;;;;;4.35;2.58;;;;;;;8.53;55.07;101638.44;5110561;28;20054;-59
2023/03/16 01:31:05;;;;;;;6.40;2.30;;;;;;;8.56;53.90;101639.91;5108294;28;20534;-59
2023/03/16 01:33:33;;;;;;;7.20;2.95;;;;;;;8.54;54.69;101633.91;5118839;28;20051;-59
2023/03/16 01:36:07;;;;;;;3.72;2.35;;;;;;;8.54;54.44;101634.72;5122186;28;20043;-59
2023/03/16 01:38:35;;;;;;;6.35;2.80;;;;;;;8.54;54.46;101626.69;5122034;28;20147;-59
2023/03/16 01:41:03;;;;;;;3.97;2.47;;;;;;;8.53;54.79;101629.56;5116654;28;20059;-59
2023/03/16 01:43:32;;;;;;;5.82;2.50;;;;;;;8.54;54.45;101620.50;5108722;28;20059;-59
2023/03/16 01:46:21;;;;;;;4.45;2.33;;;;;;;8.54;54.96;101623.19;5112916;28;20051;-58
2023/03/16 01:48:55;;;;;;;5.18;2.67;;;;;;;8.52;54.15;101623.38;5111704;28;20044;-59
2023/03/16 01:51:29;;;;;;;5.40;2.70;;;;;;;8.53;54.88;101626.88;5123342;28;20071;-59
2023/03/16 01:54:03;;;;;;;4.03;2.67;;;;;;;8.53;55.12;101626.88;5115470;28;20071;-59
2023/03/16 01:56:36;;;;;;;4.68;2.70;;;;;;;8.51;55.08;101620.88;5123463;28;20044;-59
2023/03/16 01:59:09;;;;;;;5.30;2.42;;;;;;;8.52;54.77;101622.53;5121916;28;20051;-57
2023/03/16 02:01:37;;;;;;;4.32;2.30;;;;;;;8.51;55.42;101619.03;5116241;28;20036;-57
2023/03/16 02:04:17;;;;;;;4.47;2.22;;;;;;;8.43;55.07;101605.75;5109912;28;20502;-58
2023/03/16 02:06:47;;;;;;;4.10;2.50;;;;;;;8.52;54.58;101614.50;5110832;28;20135;-58
2023/03/16 02:09:16;;;;;;;6.63;2.60;;;;;;;8.53;55.32;101616.16;5113759;28;20134;-58
2023/03/16 02:11:44;;;;;;;3.88;2.63;;;;;;;8.50;55.11;101619.22;5108362;28;20484;-58
2023/03/16 02:14:13;;;;;;;4.72;2.42;;;;;;;8.50;55.08;101612.00;5118641;28;20040;-59
2023/03/16 02:16:41;;;;;;;4.47;2.55;;;;;;;8.51;54.90;101613.69;5109973;28;20058;-59
2023/03/16 02:19:16;;;;;;;4.43;2.33;;;;;;;8.48;55.01;101612.19;5121162;28;20044;-59
2023/03/16 02:21:54;;;;;;;4.95;2.65;;;;;;;8.50;55.63;101616.53;5118340;28;20043;-58
2023/03/16 02:24:22;;;;;;;5.65;2.47;;;;;;;8.50;55.20;101608.50;5120526;28;20044;-58
2023/03/16 02:26:54;;;;;;;4.35;2.70;;;;;;;8.48;55.24;101603.34;5122385;28;20078;-60
2023/03/16 02:29:45;;;;;;;3.95;2.45;;;;;;;8.48;55.64;101597.97;5109887;28;20719;-59
2023/03/16 02:32:14;;;;;;;4.72;2.70;;;;;;;8.46;54.92;101602.69;5113608;28;20135;-59
2023/03/16 02:34:42;;;;;;;3.28;2.20;;;;;;;8.46;55.84;101602.69;5106520;28;20052;-59
2023/03/16 02:37:11;;;;;;;4.13;2.20;;;;;;;8.45;55.98;101603.72;5113601;28;20130;-59
2023/03/16 02:39:42;;;;;;;3.85;2.45;;;;;;;8.44;55.56;101600.22;5124093;28;20044;-60
2023/03/16 02:42:15;;;;;;;7.63;2.60;;;;;;;8.45;55.10;101598.34;5125440;28;20139;-59
2023/03/16 02:44:48;;;;;;;5.68;2.88;;;;;;;8.45;55.63;101593.00;5115841;28;20127;-59
2023/03/16 02:47:24;;;;;;;7.82;2.80;;;;;;;8.44;55.50;101596.69;5119305;28;20087;-58
2023/03/16 02:49:52;;;;;;;4.55;3.13;;;;;;;8.42;54.96;101588.84;5124812;28;20051;-58
2023/03/16 02:52:20;;;;;;;4.43;2.55;;;;;;;8.43;55.48;101590.50;5121864;28;20104;-59
2023/03/16 02:54:47;;;;;;;6.07;2.80;;;;;;;8.41;55.25;101592.56;5123130;28;20115;-58
2023/03/16 02:57:15;;;;;;;5.05;2.60;;;;;;;8.41;54.78;101592.56;5126088;28;20058;-57
2023/03/16 02:59:44;;;;;;;5.68;2.83;;;;;;;8.40;55.24;101588.22;5123170;27;20071;-58
2023/03/16 03:02:12;;;;;;;3.63;2.03;;;;;;;8.42;55.55;101577.31;5116040;28;20075;-58
2023/03/16 03:04:40;;;;;;;3.95;2.08;;;;;;;8.40;56.10;101579.34;5121645;28;20098;-58
2023/03/16 03:07:08;;;;;;;3.90;2.42;;;;;;;8.41;55.75;101578.31;5124230;28;20102;-58
2023/03/16 03:09:36;;;;;;;6.05;2.25;;;;;;;8.39;55.73;101577.69;5113311;28;20048;-58
2023/03/16 03:12:04;;;;;;;3.42;2.10;;;;;;;8.37;55.74;101569.00;5120628;28;20404;-59
2023/03/16 03:14:36;;;;;;;4.07;2.28;;;;;;;8.37;55.35;101564.47;5120917;27;20074;-58
2023/03/16 03:17:07;;;;;;;4.80;2.25;;;;;;;8.37;55.43;101567.16;5112259;28;20048;-59
2023/03/16 03:19:35;;;;;;;4.63;3.05;;;;;;;8.37;55.46;101572.53;5115234;28;20053;-58
2023/03/16 03:22:05;;;;;;;3.72;2.30;;;;;;;8.36;55.72;101567.34;5121056;28;20070;-58
2023/03/16 03:24:34;;;;;;;5.85;2.55;;;;;;;8.35;55.83;101563.84;5121531;28;20048;-59
2023/03/16 03:27:04;;;;;;;4.45;2.20;;;;;;;8.33;54.98;101568.56;5119547;28;20474;-59
2023/03/16 03:29:34;;;;;;;5.20;2.50;;;;;;;8.34;55.80;101564.03;5122389;28;20040;-59
2023/03/16 03:32:02;;;;;;;4.13;2.17;;;;;;;8.34;55.94;101559.50;5116409;28;20112;-59
2023/03/16 03:34:31;;;;;;;4.95;2.20;;;;;;;8.34;55.60;101567.53;5119057;28;20052;-59
2023/03/16 03:37:00;;;;;;;6.47;2.72;;;;;;;8.34;55.26;101567.53;5123202;28;20165;-59
2023/03/16 03:39:27;;;;;;;4.28;2.42;;;;;;;8.33;56.00;101565.06;5116393;27;20043;-59
2023/03/16 03:41:55;;;;;;;7.10;2.47;;;;;;;8.31;55.50;101570.56;5115043;28;20043;-59
2023/03/16 03:44:23;;;;;;;5.60;2.30;;;;;;;8.31;56.12;101565.22;5123976;28;20044;-59
2023/03/16 03:46:51;;;;;;;5.15;2.13;;;;;;;8.30;55.61;101562.72;5114889;28;20128;-59
2023/03/16 03:49:19;;;;;;;2.58;2.13;;;;;;;8.30;55.46;101560.03;5120835;28;20043;-59
2023/03/16 03:51:48;;;;;;;3.60;2.20;;;;;;;8.31;55.63;101559.03;5119016;28;20444;-59
2023/03/16 03:54:16;;;;;;;4.72;2.40;;;;;;;8.31;55.60;101562.53;5117204;28;20048;-59
2023/03/16 03:56:44;;;;;;;5.72;2.30;;;;;;;8.32;56.06;101561.50;5113454;28;20048;-59
2023/03/16 03:59:11;;;;;;;3.25;2.20;;;;;;;8.33;56.01;101557.03;5109527;28;20048;-59
2023/03/16 04:01:39;;;;;;;4.38;2.50;;;;;;;8.32;55.81;101556.16;5112382;28;20109;-59
2023/03/16 04:04:07;;;;;;;4.07;2.28;;;;;;;8.31;55.93;101545.63;5116223;28;20074;-59
2023/03/16 04:06:35;;;;;;;3.75;2.20;;;;;;;8.29;55.64;101537.78;5116633;28;20130;-59
2023/03/16 04:09:04;;;;;;;3.42;1.92;;;;;;;8.29;55.42;101540.47;5115329;28;20075;-59
2023/03/16 04:11:32;;;;;;;4.53;2.58;;;;;;;8.29;56.10;101535.13;5115999;28;20452;-59
2023/03/16 04:13:59;;;;;;;4.57;2.17;;;;;;;8.29;55.23;101528.94;5115118;28;20047;-59
2023/03/16 04:16:27;;;;;;;3.05;2.00;;;;;;;8.29;56.32;101534.28;5122337;28;20347;-58
2023/03/16 04:18:55;;;;;;;4.93;2.15;;;;;;;8.28;56.17;101530.78;5112617;28;20048;-58
2023/03/16 04:21:24;;;;;;;5.00;2.05;;;;;;;8.29;55.77;101531.59;5118515;28;20649;-59
2023/03/16 04:23:53;;;;;;;6.55;2.47;;;;;;;8.28;56.16;101528.09;5113946;28;20050;-59
2023/03/16 04:26:24;;;;;;;6.90;2.50;;;;;;;8.27;56.33;101526.44;5123335;28;20506;-59
2023/03/16 04:28:52;;;;;;;5.10;2.22;;;;;;;8.29;56.03;101528.94;5116233;28;20048;-58
2023/03/16 04:31:20;;;;;;;8.15;2.65;;;;;;;8.27;55.96;101526.44;5112616;28;20083;-59
2023/03/16 04:33:48;;;;;;;3.47;2.67;;;;;;;8.25;56.04;101522.28;5118178;27;20047;-58
2023/03/16 04:36:16;;;;;;;3.05;2.10;;;;;;;8.24;56.19;101526.81;5119313;28;20082;-58
2023/03/16 04:38:44;;;;;;;4.18;2.08;;;;;;;8.25;56.19;101527.66;5121589;28;20054;-58
2023/03/16 04:41:11;;;;;;;5.07;2.05;;;;;;;8.26;56.61;101530.13;5117719;28;20115;-58
2023/03/16 04:43:42;;;;;;;3.70;2.20;;;;;;;8.26;56.50;101523.94;5123301;28;20047;-58
2023/03/16 04:46:10;;;;;;;4.55;2.10;;;;;;;8.24;56.22;101524.13;5123576;28;20055;-59
2023/03/16 04:48:38;;;;;;;5.78;2.78;;;;;;;8.25;55.45;101527.66;5109078;28;20048;-58
2023/03/16 04:51:06;;;;;;;4.53;2.20;;;;;;;8.25;56.01;101522.28;5109788;28;20227;-58
2023/03/16 04:53:34;;;;;;;4.38;1.80;;;;;;;8.25;55.88;101522.28;5115891;28;20079;-59
2023/03/16 04:56:02;;;;;;;2.88;1.67;;;;;;;8.25;55.56;101522.28;5115369;28;20115;-58
2023/03/16 04:58:30;;;;;;;2.90;1.88;;;;;;;8.24;55.33;101517.94;5120531;27;20047;-58
2023/03/16 05:00:59;;;;;;;8.20;2.88;;;;;;;8.24;56.06;101524.13;5123090;28;20135;-58
2023/03/16 05:03:27;;;;;;;5.53;2.22;;;;;;;8.25;56.15;101519.63;5115888;28;20075;-59
2023/03/16 05:05:55;;;;;;;3.78;1.95;;;;;;;8.23;56.20;101516.28;5107288;28;20071;-58
2023/03/16 05:08:23;;;;;;;2.90;1.80;;;;;;;8.22;56.10;101518.16;5115619;28;20043;-59
2023/03/16 05:10:50;;;;;;;4.60;2.20;;;;;;;8.22;55.88;101512.78;5114926;28;20112;-59
2023/03/16 05:13:18;;;;;;;3.53;1.95;;;;;;;8.21;55.68;101507.63;5110204;28;20051;-58
2023/03/16 05:15:46;;;;;;;4.25;1.90;;;;;;;8.22;56.51;101504.75;5115559;28;20043;-59
2023/03/16 05:18:15;;;;;;;6.80;2.33;;;;;;;8.22;56.03;101499.41;5118760;28;20077;-59
2023/03/16 05:20:43;;;;;;;3.85;2.00;;;;;;;8.20;56.36;101496.09;5115538;28;20075;-59
2023/03/16 05:23:12;;;;;;;3.95;1.77;;;;;;;8.22;56.91;101503.94;5119155;28;20074;-59
2023/03/16 05:25:39;;;;;;;4.32;2.22;;;;;;;8.21;55.50;101497.75;5112703;28;20108;-59
2023/03/16 05:28:07;;;;;;;2.60;1.63;;;;;;;8.23;56.28;101498.38;5120673;28;20588;-58
2023/03/16 05:30:35;;;;;;;3.85;2.25;;;;;;;8.24;56.05;101494.69;5121211;28;20051;-57
2023/03/16 05:33:03;;;;;;;4.93;2.30;;;;;;;8.25;56.28;101490.16;5124013;28;20078;-58
2023/03/16 05:35:33;;;;;;;2.65;1.80;;;;;;;8.25;55.85;101490.16;5119700;28;20103;-59
2023/03/16 05:38:01;;;;;;;3.55;1.88;;;;;;;8.24;56.50;101485.81;5117634;28;20115;-59
2023/03/16 05:40:29;;;;;;;2.60;1.83;;;;;;;8.23;56.32;101486.84;5118991;28;20086;-59
2023/03/16 05:42:59;;;;;;;3.22;1.83;;;;;;;8.22;56.49;101488.69;5119238;28;20047;-60
2023/03/16 05:45:27;;;;;;;3.17;1.80;;;;;;;8.21;56.37;101484.34;5116064;28;20050;-57
2023/03/16 05:47:56;;;;;;;5.50;1.85;;;;;;;8.23;56.18;101484.16;5119063;28;20047;-58
2023/03/16 05:50:24;;;;;;;4.13;2.05;;;;;;;8.24;56.97;101477.78;5115715;28;20475;-58
2023/03/16 05:52:54;;;;;;;5.25;2.72;;;;;;;8.25;56.15;101474.09;5119008;28;20051;-58
2023/03/16 05:55:22;;;;;;;3.67;2.00;;;;;;;8.23;56.48;101471.59;5120119;28;20043;-58
2023/03/16 05:57:50;;;;;;;4.45;1.63;;;;;;;8.23;56.25;101470.78;5115172;28;20040;-57
2023/03/16 06:00:19;;;;;;;4.32;1.83;;;;;;;8.23;56.29;101476.13;5120124;28;20060;-57
2023/03/16 06:02:50;;;;;;;6.60;1.90;;;;;;;8.25;56.33;101471.41;5105839;28;20715;-59
2023/03/16 06:05:20;;;;;;;2.88;1.52;;;;;;;8.14;56.32;101456.69;5118407;28;20055;-58
2023/03/16 06:07:49;;;;;;;2.33;1.52;;;;;;;8.23;56.85;101476.13;5118612;28;20108;-59
2023/03/16 06:10:18;;;;;;;3.90;2.58;;;;;;;8.24;56.67;101473.25;5116142;28;20124;-58
2023/03/16 06:12:46;;;;;;;1.80;1.50;;;;;;;8.24;56.20;101477.78;5114453;28;20495;-57
2023/03/16 06:15:14;;;;;;;5.28;1.80;;;;;;;8.23;56.98;101478.81;5112817;28;20044;-58
2023/03/16 06:17:42;;;;;;;3.90;2.17;;;;;;;8.22;56.86;101477.97;5112423;28;20645;-59
2023/03/16 06:20:13;;;;;;;5.57;1.88;;;;;;;8.20;56.59;101466.63;5113281;28;20130;-57
2023/03/16 06:22:42;;;;;;;4.68;1.98;;;;;;;8.21;56.16;101478.16;5119326;28;20119;-58
2023/03/16 06:25:12;;;;;;;6.35;2.85;;;;;;;8.20;56.94;101477.34;5119058;28;20074;-57
2023/03/16 06:27:42;;;;;;;3.17;1.73;;;;;;;8.20;56.55;101482.69;5115319;28;20075;-60
2023/03/16 06:30:12;;;;;;;3.03;1.70;;;;;;;8.15;56.58;101469.88;5123527;28;20508;-60
2023/03/16 06:32:41;;;;;;;4.65;1.67;;;;;;;8.21;56.37;101475.50;5118700;28;20047;-62
2023/03/16 06:35:10;;;;;;;3.75;2.20;;;;;;;8.21;56.19;101470.13;5125461;28;20306;-59
2023/03/16 06:37:45;;;;;;;4.06;2.09;;;;;;;8.21;56.73;101457.56;5036904;28;10000726;-58
2023/03/16 06:40:13;;;;;;;3.50;1.70;;;;;;;8.20;56.53;101463.97;5121675;28;20279;-59
2023/03/16 06:42:42;;;;;;;3.67;1.88;;;;;;;8.20;57.38;101460.44;5118247;27;20173;-60
2023/03/16 06:45:15;;;;;;;5.82;1.95;;;;;;;8.19;56.83;101467.66;5120749;28;20043;-60
2023/03/16 06:47:43;;;;;;;3.72;1.92;;;;;;;8.21;56.83;101462.09;5116332;28;20079;-60
2023/03/16 06:50:11;;;;;;;4.88;2.17;;;;;;;8.21;57.13;101459.44;5120558;28;20094;-64
2023/03/16 06:52:40;;;;;;;8.38;2.80;;;;;;;8.15;57.72;101464.53;5118121;27;20051;-60
2023/03/16 06:55:11;;;;;;;6.00;2.20;;;;;;;8.15;57.58;101461.84;5109017;27;20485;-61
2023/03/16 06:57:39;;;;;;;6.75;1.95;;;;;;;8.14;57.23;101467.41;5116466;28;20045;-60
2023/03/16 07:00:10;;;;;;;6.53;2.65;;;;;;;8.16;57.40;101465.34;5121381;28;20047;-60
2023/03/16 07:02:39;;;;;;;3.83;2.08;;;;;;;8.18;57.50;101463.31;5117920;28;20047;-61
2023/03/16 07:05:09;;;;;;;3.25;2.20;;;;;;;8.20;56.96;101466.63;5122204;28;20419;-64
2023/03/16 07:07:37;;;;;;;5.47;2.10;;;;;;;8.21;56.61;101468.28;5118086;28;20107;-61
2023/03/16 07:10:06;;;;;;;5.25;2.03;;;;;;;8.21;57.35;101465.63;5115873;28;20155;-61
2023/03/16 07:12:33;;;;;;;4.68;2.35;;;;;;;8.18;57.47;101460.63;5103609;28;20058;-66
2023/03/16 07:15:01;;;;;;;5.80;2.20;;;;;;;8.15;58.02;101456.50;5117756;27;20083;-60
2023/03/16 07:17:31;;;;;;;5.20;2.13;;;;;;;8.15;57.69;101448.47;5104259;28;20040;-60
2023/03/16 07:19:58;;;;;;;3.20;1.83;;;;;;;8.16;57.31;101446.63;5111003;28;20043;-60
2023/03/16 07:22:26;;;;;;;5.38;2.00;;;;;;;8.14;57.67;101444.13;5121473;28;20057;-61
2023/03/16 07:24:56;;;;;;;8.48;1.70;;;;;;;8.14;57.00;101449.47;5111826;28;20119;-60
2023/03/16 07:27:24;;;;;;;5.65;2.20;;;;;;;8.16;57.40;101441.25;5125377;28;20123;-60
2023/03/16 07:29:52;;;;;;;4.50;2.13;;;;;;;8.16;57.74;101439.41;5125159;28;20514;-61
2023/03/16 07:32:20;;;;;;;3.72;1.88;;;;;;;8.15;57.53;101440.44;5114958;28;20074;-59
2023/03/16 07:34:49;;;;;;;4.20;2.20;;;;;;;8.15;57.14;101439.59;5124727;28;20102;-60
2023/03/16 07:37:17;;;;;;;2.78;1.70;;;;;;;8.15;57.27;101445.78;5118372;28;20054;-60
2023/03/16 07:39:52;;;;;;;5.55;2.42;;;;;;;8.17;58.02;101450.94;5124869;28;20059;-61
2023/03/16 07:42:21;;;;;;;4.80;2.20;;;;;;;8.18;56.94;101454.47;5114816;28;20052;-60
2023/03/16 07:44:49;;;;;;;5.07;1.88;;;;;;;8.18;57.09;101451.78;5125160;28;20059;-60
2023/03/16 07:47:18;;;;;;;4.53;1.98;;;;;;;8.18;57.37;101449.09;5123510;28;20076;-60
2023/03/16 07:49:46;;;;;;;5.80;2.88;;;;;;;8.19;56.90;101451.59;5118545;28;20113;-60
2023/03/16 07:52:15;;;;;;;5.32;2.00;;;;;;;8.20;56.92;101450.56;5116366;28;20055;-61
2023/03/16 07:54:43;;;;;;;5.35;2.20;;;;;;;8.21;57.59;101448.72;5121844;28;20063;-60
2023/03/16 07:57:11;;;;;;;3.95;2.10;;;;;;;8.21;57.30;101449.53;5124303;28;20075;-61
2023/03/16 07:59:39;;;;;;;4.35;2.10;;;;;;;8.24;56.71;101445.66;5115133;28;20178;-62
2023/03/16 08:02:10;;;;;;;4.50;2.05;;;;;;;8.22;57.12;101453.06;5121857;28;20055;-62
2023/03/16 08:04:41;;;;;;;4.65;2.00;;;;;;;8.23;57.14;101454.72;5122999;28;20089;-62
2023/03/16 08:07:09;;;;;;;8.82;2.30;;;;;;;8.23;57.00;101455.53;5122124;28;20107;-64
2023/03/16 08:09:38;;;;;;;4.25;2.13;;;;;;;8.23;56.62;101438.66;5123046;28;20073;-61
2023/03/16 08:12:08;;;;;;;9.23;2.45;;;;;;;8.24;56.87;101453.69;5123621;28;20058;-62
2023/03/16 08:14:36;;;;;;;5.28;2.10;;;;;;;8.23;56.94;101449.34;5124392;28;20062;-62
2023/03/16 08:17:06;;;;;;;5.13;2.25;;;;;;;8.26;57.11;101444.44;5118097;28;20173;-60
2023/03/16 08:19:34;;;;;;;6.10;2.28;;;;;;;8.25;57.14;101442.78;5107726;28;20389;-60
2023/03/16 08:22:02;;;;;;;3.38;2.20;;;;;;;8.25;57.19;101450.81;5111599;28;20047;-63
2023/03/16 08:24:30;;;;;;;6.10;2.65;;;;;;;8.26;57.36;101448.97;5123912;28;20058;-60
2023/03/16 08:26:59;;;;;;;4.93;2.22;;;;;;;8.27;56.81;101450.63;5118040;28;20155;-61
2023/03/16 08:29:27;;;;;;;4.30;2.13;;;;;;;8.27;56.56;101453.31;5121507;28;20062;-60
2023/03/16 08:31:56;;;;;;;4.57;2.22;;;;;;;8.29;57.16;101452.09;5105738;28;20051;-61
2023/03/16 08:34:25;;;;;;;3.83;2.25;;;;;;;8.31;57.15;101452.72;5106184;28;20075;-60
2023/03/16 08:36:54;;;;;;;6.93;2.40;;;;;;;8.30;57.72;101450.25;5115633;27;20134;-62
2023/03/16 08:39:21;;;;;;;6.43;2.28;;;;;;;8.31;57.13;101457.25;5130053;27;20112;-62
2023/03/16 08:41:49;;;;;;;5.00;2.10;;;;;;;8.31;57.58;101446.53;5126576;27;20062;-60
2023/03/16 08:44:19;;;;;;;3.72;2.00;;;;;;;8.33;57.20;101444.53;5127761;27;20044;-59
2023/03/16 08:46:46;;;;;;;4.28;1.95;;;;;;;8.32;56.55;101446.34;5130319;27;20047;-61
2023/03/16 08:49:14;;;;;;;6.93;2.25;;;;;;;8.32;57.17;101438.31;5129453;27;20050;-63
2023/03/16 08:51:42;;;;;;;3.38;2.00;;;;;;;8.33;56.93;101440.00;5131774;27;20069;-63
2023/03/16 08:54:11;;;;;;;3.67;2.17;;;;;;;8.33;56.50;101450.72;5129105;27;20067;-60
2023/03/16 08:56:39;;;;;;;4.85;1.90;;;;;;;8.37;57.43;101445.81;5131568;27;20465;-61
2023/03/16 08:59:07;;;;;;;9.18;2.70;;;;;;;8.38;57.63;101434.91;5131795;27;20043;-62
2023/03/16 09:01:51;;;;;;;5.80;2.28;;;;;;;8.39;56.58;101433.88;5126704;27;20049;-61
2023/03/16 09:04:20;;;;;;;4.30;2.13;;;;;;;8.50;56.41;101429.03;5127647;27;20044;-61
2023/03/16 09:06:49;;;;;;;3.83;2.00;;;;;;;8.63;55.85;101423.78;5129790;27;20085;-62
2023/03/16 09:09:34;;;;;;;3.63;2.05;;;;;;;8.82;56.02;101418.53;5128175;27;20053;-61
2023/03/16 09:12:03;;;;;;;4.70;2.28;;;;;;;9.02;55.28;101421.31;5126252;27;20040;-61
2023/03/16 09:14:30;;;;;;;5.03;2.10;;;;;;;9.19;54.73;101408.41;5130459;27;20433;-67
2023/03/16 09:17:00;;;;;;;3.58;2.30;;;;;;;9.45;54.32;101408.53;5129085;27;20050;-67
2023/03/16 09:19:28;;;;;;;5.57;2.10;;;;;;;9.60;53.64;101412.91;5130578;27;20142;-61
2023/03/16 09:22:07;;;;;;;4.38;2.60;;;;;;;9.73;52.97;101419.16;5128954;27;20055;-66
2023/03/16 09:24:35;;;;;;;4.78;2.33;;;;;;;9.69;53.01;101417.91;5130342;27;20057;-62
2023/03/16 09:27:04;;;;;;;4.75;1.90;;;;;;;9.66;53.36;101412.94;5130943;27;20047;-61
2023/03/16 09:29:31;;;;;;;3.88;1.80;;;;;;;9.75;53.52;101421.63;5127937;27;20063;-60
2023/03/16 09:32:01;;;;;;;4.90;2.08;;;;;;;9.96;53.79;101416.09;5130927;28;20051;-61
2023/03/16 09:34:28;;;;;;;5.00;2.00;;;;;;;10.24;52.36;101410.59;5124671;28;20069;-61
2023/03/16 09:36:58;;;;;;;4.22;1.77;;;;;;;10.33;51.94;101413.91;5131398;28;20091;-59
2023/03/16 09:39:25;;;;;;;6.35;1.95;;;;;;;10.40;52.11;101406.69;5125691;28;20461;-60
2023/03/16 09:42:00;;;;;;;3.45;1.80;;;;;;;10.48;51.87;101406.44;5127747;28;20085;-60
2023/03/16 09:44:38;;;;;;;4.95;1.98;;;;;;;10.58;51.58;101403.34;5129190;28;20057;-61
2023/03/16 09:47:11;;;;;;;3.13;1.73;;;;;;;10.66;51.34;101412.00;5131277;27;20063;-61
2023/03/16 09:49:45;;;;;;;5.35;2.33;;;;;;;10.68;51.39;101415.31;5132372;27;20043;-61
2023/03/16 09:52:26;;;;;;;4.95;1.58;;;;;;;10.61;51.58;101406.44;5128488;27;20059;-61
2023/03/16 09:55:00;;;;;;;5.13;2.10;;;;;;;10.41;51.84;101400.25;5130566;27;20114;-61
2023/03/16 09:57:33;;;;;;;6.47;1.95;;;;;;;10.20;52.79;101398.63;5133943;27;20047;-61
2023/03/16 10:00:16;;;;;;;5.40;1.80;;;;;;;10.04;52.85;101404.34;5136464;27;20036;-61
2023/03/16 10:02:58;;;;;;;3.05;1.88;;;;;;;9.86;53.50;101388.81;5129639;27;20075;-61
2023/03/16 10:05:27;;;;;;;4.70;1.80;;;;;;;9.72;54.29;101387.97;5134407;27;20060;-60
2023/03/16 10:08:06;;;;;;;3.30;1.52;;;;;;;9.66;54.42;101380.72;5132734;27;20047;-60
2023/03/16 10:10:50;;;;;;;3.53;1.80;;;;;;;9.63;54.84;101383.00;5134597;27;20081;-60
2023/03/16 10:13:30;;;;;;;3.65;2.10;;;;;;;9.64;55.34;101380.09;5129956;27;20057;-60
2023/03/16 10:16:03;;;;;;;6.47;2.22;;;;;;;9.58;54.47;101374.72;5134629;27;20178;-61
2023/03/16 10:18:39;;;;;;;6.85;1.85;;;;;;;9.54;55.24;101368.94;5131844;27;20043;-60
2023/03/16 10:21:13;;;;;;;3.58;1.80;;;;;;;9.51;55.65;101369.34;5134012;27;20070;-61
2023/03/16 10:23:42;;;;;;;4.03;1.70;;;;;;;9.52;54.96;101367.47;5134253;27;20079;-60
2023/03/16 10:26:15;;;;;;;3.28;1.45;;;;;;;9.50;55.52;101366.84;5134168;27;20076;-61
2023/03/16 10:28:44;;;;;;;3.45;2.42;;;;;;;9.49;55.62;101365.19;5130571;27;20055;-62
2023/03/16 10:31:13;;;;;;;4.10;1.45;;;;;;;9.46;55.04;101364.56;5132598;27;20052;-61
2023/03/16 10:33:42;;;;;;;4.20;2.30;;;;;;;9.46;55.83;101359.22;5126310;27;20047;-60
2023/03/16 10:36:15;;;;;;;3.92;1.50;;;;;;;9.63;55.23;101362.34;5135211;27;20130;-60
2023/03/16 10:38:48;;;;;;;4.18;1.67;;;;;;;9.84;54.61;101363.22;5131087;27;20041;-60
2023/03/16 10:41:22;;;;;;;4.13;1.98;;;;;;;10.05;54.38;101361.19;5129649;27;20071;-61
2023/03/16 10:43:51;;;;;;;2.88;1.58;;;;;;;10.29;53.71;101361.63;5130259;27;20073;-61
2023/03/16 10:46:19;;;;;;;6.68;2.40;;;;;;;10.52;53.08;101350.41;5134949;27;20047;-60
2023/03/16 10:48:58;;;;;;;4.13;1.75;;;;;;;10.72;52.59;101353.91;5126090;27;20075;-60
2023/03/16 10:51:29;;;;;;;5.20;1.48;;;;;;;10.92;52.18;101345.78;5132713;27;20043;-60
2023/03/16 10:54:09;;;;;;;3.17;1.55;;;;;;;11.09;51.95;101347.78;5132619;27;20043;-61
2023/03/16 10:56:37;;;;;;;2.13;1.42;;;;;;;11.31;50.79;101339.41;5128918;27;20043;-61
2023/03/16 10:59:24;;;;;;;7.88;1.63;;;;;;;11.32;51.51;101346.44;5132287;27;20049;-61
2023/03/16 11:01:51;;;;;;;3.10;1.63;;;;;;;11.29;51.46;101331.56;5129832;27;20428;-60
2023/03/16 11:04:20;;;;;;;3.03;1.35;;;;;;;11.09;51.73;101336.19;5133568;27;20122;-67
2023/03/16 11:06:53;;;;;;;2.80;1.58;;;;;;;10.89;52.19;101333.56;5133076;27;20074;-59
2023/03/16 11:09:24;;;;;;;5.15;2.10;;;;;;;10.73;53.08;101328.66;5121330;28;20036;-61
2023/03/16 11:11:52;;;;;;;4.40;1.80;;;;;;;10.61;53.90;101333.03;5112181;27;20469;-61
2023/03/16 11:14:25;;;;;;;4.85;1.77;;;;;;;10.51;53.91;101328.09;5125744;28;20052;-60
2023/03/16 11:17:01;;;;;;;3.92;1.80;;;;;;;10.46;54.64;101314.47;5121180;27;20048;-60
2023/03/16 11:19:33;;;;;;;5.97;1.70;;;;;;;10.39;54.63;101309.13;5123755;28;20051;-60
2023/03/16 11:22:06;;;;;;;5.40;1.75;;;;;;;10.36;54.98;101303.34;5123544;27;20046;-60
2023/03/16 11:24:45;;;;;;;3.80;1.42;;;;;;;10.36;55.29;101303.34;5120081;28;20358;-60
2023/03/16 11:27:21;;;;;;;2.20;1.20;;;;;;;10.33;55.27;101301.91;5126028;28;20048;-60
2023/03/16 11:30:01;;;;;;;3.03;1.50;;;;;;;10.29;55.42;101294.47;5117555;28;20047;-60
2023/03/16 11:32:33;;;;;;;4.63;1.38;;;;;;;10.34;55.96;101297.34;5113449;28;20055;-60
2023/03/16 11:35:06;;;;;;;3.13;1.27;;;;;;;10.38;56.05;101298.59;5105301;27;20088;-60
2023/03/16 11:37:50;;;;;;;5.88;1.52;;;;;;;10.37;55.69;101302.31;5121701;28;20083;-60
2023/03/16 11:40:30;;;;;;;4.50;1.40;;;;;;;10.33;55.62;101285.78;5112722;28;20078;-60
2023/03/16 11:43:07;;;;;;;4.32;1.60;;;;;;;10.33;56.07;101283.09;5111982;28;20043;-61
2023/03/16 11:45:41;;;;;;;6.15;1.80;;;;;;;10.33;55.44;101282.28;5120261;27;20119;-61